createdAt,value
2018-07-21T00:01:05.643Z,6.10
2018-07-21T00:03:32.962Z,6.63
2018-07-21T00:06:00.359Z,6.67
2018-07-21T00:08:27.718Z,6.40
2018-07-21T00:10:55.021Z,5.87
2018-07-21T00:13:22.339Z,6.37
2018-07-21T00:15:49.705Z,6.40
2018-07-21T00:18:17.013Z,6.90
2018-07-21T00:20:44.350Z,6.47
2018-07-21T00:23:11.666Z,6.47
2018-07-21T00:25:38.996Z,7.20
2018-07-21T00:28:06.314Z,7.53
2018-07-21T00:30:33.498Z,6.70
2018-07-21T00:33:00.850Z,6.30
2018-07-21T00:35:28.151Z,6.87
2018-07-21T00:37:55.488Z,6.37
2018-07-21T00:40:22.808Z,7.33
2018-07-21T00:42:50.126Z,6.37
2018-07-21T00:45:17.450Z,6.50
2018-07-21T00:47:44.867Z,6.57
2018-07-21T00:50:12.189Z,6.70
2018-07-21T00:52:39.500Z,7.00
2018-07-21T00:55:06.825Z,7.20
2018-07-21T00:57:34.132Z,6.80
2018-07-21T01:00:01.473Z,7.30
2018-07-21T01:02:28.787Z,7.60
2018-07-21T01:04:56.110Z,7.33
2018-07-21T01:07:23.919Z,7.47
2018-07-21T01:09:51.242Z,7.47
2018-07-21T01:12:18.571Z,7.97
2018-07-21T01:14:45.866Z,7.93
2018-07-21T01:17:13.210Z,7.30
2018-07-21T01:19:41.462Z,7.87
2018-07-21T01:22:08.788Z,7.60
2018-07-21T01:24:36.107Z,7.23
2018-07-21T01:27:03.467Z,7.73
2018-07-21T01:29:30.790Z,7.80
2018-07-21T01:31:58.128Z,8.07
2018-07-21T01:34:25.454Z,7.83
2018-07-21T01:36:52.771Z,7.23
2018-07-21T01:39:20.130Z,7.93
2018-07-21T01:41:47.543Z,7.47
2018-07-21T01:44:14.867Z,7.50
2018-07-21T01:46:42.266Z,7.27
2018-07-21T01:49:09.581Z,7.50
2018-07-21T01:51:36.898Z,8.33
2018-07-21T01:54:04.227Z,7.60
2018-07-21T01:56:31.615Z,8.40
2018-07-21T01:58:59.010Z,7.97
2018-07-21T02:01:26.308Z,8.20
2018-07-21T02:03:53.646Z,8.43
2018-07-21T02:06:20.974Z,7.87
2018-07-21T02:08:48.278Z,7.63
2018-07-21T02:11:15.609Z,6.50
2018-07-21T02:13:42.923Z,7.20
2018-07-21T02:16:10.255Z,7.30
2018-07-21T02:18:37.574Z,6.77
2018-07-21T02:21:05.035Z,7.07
2018-07-21T02:23:32.374Z,7.63
2018-07-21T02:25:59.719Z,7.93
2018-07-21T02:28:27.022Z,7.30
2018-07-21T02:30:54.339Z,7.90
2018-07-21T02:33:21.673Z,7.50
2018-07-21T02:35:49.011Z,7.90
2018-07-21T02:38:16.340Z,7.60
2018-07-21T02:40:43.654Z,7.53
2018-07-21T02:43:10.983Z,7.43
2018-07-21T02:45:38.352Z,8.50
2018-07-21T02:48:05.643Z,7.87
2018-07-21T02:50:33.091Z,7.80
2018-07-21T02:53:00.415Z,6.87
2018-07-21T02:55:27.758Z,7.20
2018-07-21T02:57:55.063Z,7.40
2018-07-21T03:00:22.649Z,6.60
2018-07-21T03:02:49.978Z,8.57
2018-07-21T03:05:17.300Z,8.10
2018-07-21T03:07:44.622Z,7.10
2018-07-21T03:10:11.982Z,9.50
2018-07-21T03:12:39.270Z,8.40
2018-07-21T03:15:06.595Z,8.97
2018-07-21T03:17:33.956Z,8.40
2018-07-21T03:20:01.307Z,8.20
2018-07-21T03:22:28.666Z,7.47
2018-07-21T03:24:55.955Z,8.87
2018-07-21T03:27:23.160Z,8.40
2018-07-21T03:29:50.459Z,8.50
2018-07-21T03:32:17.797Z,9.00
2018-07-21T03:34:45.121Z,10.17
2018-07-21T03:37:12.429Z,9.87
2018-07-21T03:39:39.755Z,10.37
2018-07-21T03:42:07.076Z,10.73
2018-07-21T03:44:34.418Z,8.90
2018-07-21T03:47:01.754Z,9.47
2018-07-21T03:49:29.071Z,10.67
2018-07-21T03:51:56.414Z,10.50
2018-07-21T03:54:23.772Z,10.00
2018-07-21T03:56:51.091Z,10.40
2018-07-21T03:59:18.420Z,9.87
2018-07-21T04:01:45.847Z,9.90
2018-07-21T04:04:13.169Z,10.40
2018-07-21T04:06:40.504Z,10.17
2018-07-21T04:09:07.939Z,11.30
2018-07-21T04:11:35.268Z,11.07
2018-07-21T04:14:02.611Z,12.77
2018-07-21T04:16:30.017Z,12.60
2018-07-21T04:18:57.283Z,10.53
2018-07-21T04:21:24.623Z,11.57
2018-07-21T04:23:51.939Z,10.73
2018-07-21T04:26:19.284Z,11.10
2018-07-21T04:28:46.617Z,10.50
2018-07-21T04:31:13.939Z,9.60
2018-07-21T04:33:41.283Z,10.77
2018-07-21T04:36:08.668Z,10.20
2018-07-21T04:38:35.987Z,9.27
2018-07-21T04:41:03.316Z,8.87
2018-07-21T04:43:30.669Z,8.53
2018-07-21T04:45:58.049Z,8.03
2018-07-21T04:48:25.487Z,9.00
2018-07-21T04:50:52.678Z,9.20
2018-07-21T04:53:20.007Z,10.40
2018-07-21T04:55:47.339Z,8.83
2018-07-21T04:58:14.675Z,9.27
2018-07-21T05:00:42.262Z,9.90
2018-07-21T05:03:09.576Z,9.57
2018-07-21T05:05:36.893Z,9.63
2018-07-21T05:08:04.228Z,8.80
2018-07-21T05:10:31.587Z,8.63
2018-07-21T05:12:58.963Z,8.17
2018-07-21T05:15:26.446Z,8.57
2018-07-21T05:17:53.752Z,7.70
2018-07-21T05:20:21.088Z,7.33
2018-07-21T05:22:48.425Z,7.43
2018-07-21T05:25:15.747Z,6.70
2018-07-21T05:27:43.354Z,6.60
2018-07-21T05:30:10.727Z,6.90
2018-07-21T05:32:38.010Z,7.17
2018-07-21T05:35:05.326Z,6.37
2018-07-21T05:37:32.663Z,5.77
2018-07-21T05:40:00.036Z,6.43
2018-07-21T05:42:27.338Z,5.80
2018-07-21T05:44:54.670Z,5.50
2018-07-21T05:47:22.011Z,5.87
2018-07-21T05:49:49.366Z,6.10
2018-07-21T05:52:16.730Z,5.40
2018-07-21T05:54:44.051Z,5.07
2018-07-21T05:57:11.401Z,5.57
2018-07-21T05:59:38.725Z,5.20
2018-07-21T06:02:06.307Z,4.73
2018-07-21T06:04:33.639Z,4.80
2018-07-21T06:07:00.974Z,5.60
2018-07-21T06:09:28.364Z,5.73
2018-07-21T06:11:55.705Z,5.20
2018-07-21T06:14:23.023Z,5.47
2018-07-21T06:16:50.402Z,4.13
2018-07-21T06:19:17.833Z,5.20
2018-07-21T06:21:45.159Z,4.97
2018-07-21T06:24:12.490Z,4.77
2018-07-21T06:26:39.821Z,5.10
2018-07-21T06:29:07.120Z,4.80
2018-07-21T06:31:34.467Z,4.50
2018-07-21T06:34:01.795Z,4.43
2018-07-21T06:36:29.191Z,4.47
2018-07-21T06:38:56.543Z,4.47
2018-07-21T06:41:23.859Z,5.30
2018-07-21T06:43:51.175Z,4.27
2018-07-21T06:46:18.511Z,4.50
2018-07-21T06:48:45.810Z,4.30
2018-07-21T06:51:13.149Z,4.40
2018-07-21T06:53:40.502Z,3.87
2018-07-21T06:56:07.862Z,4.00
2018-07-21T06:58:35.179Z,3.67
2018-07-21T07:03:36.811Z,3.90
2018-07-21T07:06:04.214Z,3.70
2018-07-21T07:08:31.586Z,4.73
2018-07-21T07:10:58.940Z,4.20
2018-07-21T07:13:26.271Z,4.27
2018-07-21T07:15:53.616Z,4.50
2018-07-21T07:18:20.924Z,4.43
2018-07-21T07:20:48.268Z,4.77
2018-07-21T07:23:15.605Z,5.00
2018-07-21T07:25:42.907Z,5.40
2018-07-21T07:28:10.231Z,5.73
2018-07-21T07:30:37.551Z,5.37
2018-07-21T07:33:04.888Z,4.40
2018-07-21T07:35:32.260Z,5.40
2018-07-21T07:37:59.608Z,5.60
2018-07-21T08:45:59.196Z,7.27
2018-07-21T08:48:26.591Z,7.70
2018-07-21T08:50:53.935Z,6.30
2018-07-21T08:53:21.328Z,6.87
2018-07-21T08:55:48.744Z,6.70
2018-07-21T08:58:16.047Z,7.03
2018-07-21T09:00:43.508Z,5.83
2018-07-21T09:03:11.077Z,6.23
2018-07-21T09:05:38.614Z,6.77
2018-07-21T09:08:06.084Z,6.20
2018-07-21T09:10:33.545Z,6.63
2018-07-21T09:13:01.047Z,6.40
2018-07-21T09:15:28.528Z,6.60
2018-07-21T09:17:56.067Z,7.60
2018-07-21T09:20:23.399Z,8.90
2018-07-21T09:22:50.796Z,8.43
2018-07-21T09:25:18.116Z,8.30
2018-07-21T09:27:45.464Z,9.30
2018-07-21T09:30:12.787Z,10.30
2018-07-21T09:32:40.127Z,8.70
2018-07-21T09:35:07.510Z,9.10
2018-07-21T09:37:35.041Z,11.00
2018-07-21T09:40:02.556Z,10.37
2018-07-21T09:42:29.888Z,11.20
2018-07-21T09:44:57.248Z,12.20
2018-07-21T09:47:24.596Z,11.20
2018-07-21T09:49:51.930Z,10.27
2018-07-21T09:52:19.268Z,10.53
2018-07-21T09:54:46.693Z,10.90
2018-07-21T09:57:14.038Z,10.47
2018-07-21T09:59:41.432Z,11.37
2018-07-21T10:02:08.931Z,9.73
2018-07-21T10:04:36.263Z,11.30
2018-07-21T10:07:03.991Z,9.43
2018-07-21T10:09:31.426Z,10.40
2018-07-21T10:11:58.790Z,10.93
2018-07-21T10:14:26.136Z,11.23
2018-07-21T10:16:53.483Z,12.80
2018-07-21T10:19:20.826Z,11.83
2018-07-21T10:21:48.148Z,10.97
2018-07-21T10:24:15.527Z,10.90
2018-07-21T10:26:42.854Z,12.27
2018-07-21T10:29:10.195Z,13.60
2018-07-21T10:31:37.684Z,11.80
2018-07-21T10:34:05.187Z,12.10
2018-07-21T10:36:32.589Z,13.63
2018-07-21T10:39:00.033Z,12.80
2018-07-21T10:41:27.464Z,11.70
2018-07-21T10:43:54.813Z,12.17
2018-07-21T10:46:22.121Z,12.20
2018-07-21T10:48:49.452Z,12.40
2018-07-21T10:51:16.779Z,12.70
2018-07-21T10:53:44.101Z,12.37
2018-07-21T10:56:11.477Z,11.00
2018-07-21T10:58:38.798Z,11.60
2018-07-21T11:01:06.603Z,13.20
2018-07-21T11:03:34.112Z,13.93
2018-07-21T11:06:01.764Z,13.33
2018-07-21T11:08:29.162Z,12.40
2018-07-21T11:10:56.516Z,12.27
2018-07-21T11:13:23.861Z,13.60
2018-07-21T11:15:51.214Z,12.53
2018-07-21T11:18:18.589Z,13.40
2018-07-21T11:20:45.927Z,12.30
2018-07-21T11:23:13.251Z,12.00
2018-07-21T11:25:40.828Z,11.57
2018-07-21T11:28:08.164Z,14.03
2018-07-21T11:30:35.584Z,15.90
2018-07-21T11:33:03.022Z,16.83
2018-07-21T11:35:30.484Z,20.03
2018-07-21T11:37:58.552Z,20.07
2018-07-21T11:40:25.911Z,17.60
2018-07-21T11:42:53.340Z,18.70
2018-07-21T11:45:20.690Z,20.53
2018-07-21T11:47:48.067Z,18.17
2018-07-21T11:50:15.418Z,20.80
2018-07-21T11:52:42.774Z,20.57
2018-07-21T11:55:10.108Z,19.83
2018-07-21T11:57:37.459Z,20.10
2018-07-21T12:00:04.948Z,20.33
2018-07-21T12:02:32.323Z,22.10
2018-07-21T12:04:59.752Z,22.73
2018-07-21T12:07:27.116Z,23.60
2018-07-21T12:09:54.508Z,22.27
2018-07-21T12:12:21.899Z,23.00
2018-07-21T12:14:49.255Z,23.17
2018-07-21T12:17:16.590Z,22.13
2018-07-21T12:19:43.943Z,19.90
2018-07-21T12:22:11.278Z,23.20
2018-07-21T12:24:38.470Z,22.10
2018-07-21T12:27:05.867Z,24.00
2018-07-21T12:29:33.314Z,22.33
2018-07-21T12:32:00.758Z,24.90
2018-07-21T12:34:28.132Z,18.80
2018-07-21T12:36:55.539Z,22.07
2018-07-21T12:39:22.988Z,20.70
2018-07-21T12:41:50.355Z,22.13
2018-07-21T12:44:17.698Z,20.27
2018-07-21T12:46:45.025Z,18.60
2018-07-21T12:49:12.375Z,21.20
2018-07-21T12:51:39.730Z,18.97
2018-07-21T12:54:07.064Z,23.03
2018-07-21T12:56:34.573Z,21.80
2018-07-21T12:59:02.029Z,22.03
2018-07-21T13:01:29.444Z,20.20
2018-07-21T13:03:56.893Z,21.60
2018-07-21T13:06:24.310Z,23.30
2018-07-21T13:08:51.641Z,20.37
2018-07-21T13:11:18.955Z,17.77
2018-07-21T13:13:46.326Z,20.90
2018-07-21T13:16:13.627Z,19.20
2018-07-21T13:18:40.979Z,20.70
2018-07-21T13:21:08.345Z,20.93
2018-07-21T13:23:35.743Z,23.30
2018-07-21T13:26:03.120Z,21.83
2018-07-21T13:28:30.521Z,20.93
2018-07-21T13:30:57.887Z,20.50
2018-07-21T13:33:25.235Z,22.20
2018-07-21T13:35:52.634Z,20.93
2018-07-21T13:38:19.980Z,22.70
2018-07-21T13:40:47.297Z,15.67
2018-07-21T13:43:14.652Z,23.20
2018-07-21T13:45:41.987Z,18.83
2018-07-21T13:48:09.332Z,20.63
2018-07-21T13:50:36.834Z,20.53
2018-07-21T13:53:04.215Z,20.93
2018-07-21T13:55:32.296Z,20.93
2018-07-21T13:57:59.647Z,20.13
2018-07-21T14:00:27.211Z,17.83
2018-07-21T14:02:54.598Z,17.10
2018-07-21T14:05:21.954Z,16.97
2018-07-21T14:07:49.375Z,17.33
2018-07-21T14:10:16.752Z,19.10
2018-07-21T14:12:44.015Z,21.70
2018-07-21T14:15:11.346Z,18.40
2018-07-21T14:17:38.754Z,20.27
2018-07-21T14:20:06.099Z,19.47
2018-07-21T14:22:33.575Z,18.87
2018-07-21T14:25:00.954Z,16.60
2018-07-21T14:27:28.713Z,17.80
2018-07-21T14:29:56.183Z,25.90
2018-07-21T14:32:23.453Z,20.70
2018-07-21T14:34:50.805Z,19.07
2018-07-21T14:37:18.110Z,17.50
2018-07-21T14:39:45.464Z,18.93
2018-07-21T14:42:12.851Z,16.47
2018-07-21T14:44:40.346Z,16.87
2018-07-21T14:47:07.684Z,15.90
2018-07-21T14:49:35.149Z,15.00
2018-07-21T14:52:02.647Z,15.40
2018-07-21T14:54:30.085Z,14.03
2018-07-21T14:56:58.064Z,15.43
2018-07-21T14:59:25.420Z,13.87
2018-07-21T15:01:52.836Z,14.17
2018-07-21T15:04:20.174Z,15.00
2018-07-21T15:06:47.543Z,12.77
2018-07-21T15:09:14.875Z,12.87
2018-07-21T15:11:42.205Z,15.40
2018-07-21T15:14:09.523Z,13.20
2018-07-21T15:16:36.941Z,13.23
2018-07-21T15:19:04.231Z,11.40
2018-07-21T15:21:31.722Z,12.70
2018-07-21T15:23:59.279Z,13.77
2018-07-21T15:26:26.594Z,12.37
2018-07-21T15:28:53.948Z,9.40
2018-07-21T15:31:21.316Z,13.00
2018-07-21T15:33:48.625Z,13.60
2018-07-21T15:36:15.996Z,10.10
2018-07-21T15:38:43.328Z,12.97
2018-07-21T15:41:10.655Z,14.23
2018-07-21T15:43:38.214Z,12.23
2018-07-21T15:46:05.793Z,12.40
2018-07-21T15:48:33.148Z,12.57
2018-07-21T15:51:00.396Z,13.00
2018-07-21T15:53:27.798Z,12.83
2018-07-21T15:55:55.020Z,13.00
2018-07-21T15:58:22.428Z,11.37
2018-07-21T16:00:49.743Z,12.57
2018-07-21T16:03:17.158Z,11.73
2018-07-21T16:05:44.351Z,11.57
2018-07-21T16:08:11.696Z,13.80
2018-07-21T16:10:39.051Z,14.23
2018-07-21T16:13:06.392Z,14.70
2018-07-21T16:15:33.770Z,13.83
2018-07-21T16:18:01.199Z,14.30
2018-07-21T16:20:28.649Z,14.03
2018-07-21T16:22:56.031Z,12.00
2018-07-21T16:25:23.383Z,12.87
2018-07-21T16:27:50.776Z,12.73
2018-07-21T16:30:18.118Z,13.80
2018-07-21T16:32:45.463Z,13.97
2018-07-21T16:35:12.808Z,13.50
2018-07-21T16:37:40.138Z,13.63
2018-07-21T16:40:07.610Z,12.23
2018-07-21T16:42:34.929Z,11.78
2018-07-21T16:45:02.339Z,14.97
2018-07-21T16:47:29.864Z,13.80
2018-07-21T16:49:57.247Z,16.30
2018-07-21T16:52:24.924Z,14.90
2018-07-21T16:54:52.508Z,14.33
2018-07-21T16:57:20.216Z,13.10
2018-07-21T16:59:47.823Z,14.00
2018-07-21T17:02:15.184Z,14.40
2018-07-21T17:04:42.600Z,16.03
2018-07-21T17:07:09.972Z,13.10
2018-07-21T17:09:37.647Z,14.50
2018-07-21T17:12:05.067Z,14.10
2018-07-21T17:14:32.534Z,13.30
2018-07-21T17:17:00.048Z,15.60
2018-07-21T17:19:27.447Z,14.43
2018-07-21T17:21:54.878Z,12.97
2018-07-21T17:24:22.219Z,13.00
2018-07-21T17:26:49.559Z,14.40
2018-07-21T17:29:16.969Z,13.03
2018-07-21T17:31:44.282Z,13.50
2018-07-21T17:34:11.639Z,16.00
2018-07-21T17:36:39.000Z,12.67
2018-07-21T17:39:07.087Z,12.87
2018-07-21T17:41:34.858Z,13.83
2018-07-21T17:44:02.383Z,13.07
2018-07-21T17:46:29.739Z,15.40
2018-07-21T17:48:57.639Z,15.40
2018-07-21T17:51:25.206Z,14.10
2018-07-21T17:53:52.558Z,15.40
2018-07-21T17:56:19.949Z,15.00
2018-07-21T17:58:47.332Z,16.20
2018-07-21T18:01:14.657Z,14.43
2018-07-21T18:03:42.000Z,14.97
2018-07-21T18:06:09.583Z,14.60
2018-07-21T18:08:36.982Z,13.00
2018-07-21T18:11:04.240Z,13.80
2018-07-21T18:13:31.578Z,14.30
2018-07-21T18:15:58.993Z,12.60
2018-07-21T18:18:26.427Z,12.83
2018-07-21T18:20:53.756Z,11.90
2018-07-21T18:23:21.235Z,13.23
2018-07-21T18:25:48.655Z,14.43
2018-07-21T18:28:16.014Z,13.53
2018-07-21T18:30:44.048Z,13.40
2018-07-21T18:33:11.390Z,14.87
2018-07-21T18:35:38.767Z,14.27
2018-07-21T18:38:06.117Z,13.20
2018-07-21T18:40:34.058Z,12.30
2018-07-21T18:43:01.380Z,13.80
2018-07-21T18:45:28.791Z,12.97
2018-07-21T18:47:56.272Z,13.40
2018-07-21T18:50:23.608Z,14.07
2018-07-21T18:52:51.007Z,14.07
2018-07-21T18:55:18.432Z,14.60
2018-07-21T18:57:45.847Z,16.90
2018-07-21T19:00:13.345Z,15.83
2018-07-21T19:02:40.688Z,15.70
2018-07-21T19:05:08.067Z,16.30
2018-07-21T19:07:35.423Z,16.30
2018-07-21T19:10:02.793Z,17.20
2018-07-21T19:12:30.128Z,16.67
2018-07-21T19:14:57.449Z,15.93
2018-07-21T19:17:24.830Z,14.63
2018-07-21T19:19:52.139Z,16.13
2018-07-21T19:22:19.489Z,14.33
2018-07-21T19:24:46.823Z,15.00
2018-07-21T19:27:14.894Z,13.57
2018-07-21T19:29:42.314Z,15.03
2018-07-21T19:32:09.723Z,14.70
2018-07-21T19:34:37.137Z,13.97
2018-07-21T19:37:04.502Z,14.60
2018-07-21T19:39:31.868Z,14.07
2018-07-21T19:41:59.343Z,13.97
2018-07-21T19:44:26.679Z,13.93
2018-07-21T19:46:54.017Z,14.47
2018-07-21T19:49:21.457Z,13.87
2018-07-21T19:51:48.836Z,14.67
2018-07-21T19:54:16.164Z,14.63
2018-07-21T19:56:43.704Z,15.30
2018-07-21T19:59:11.299Z,15.70
2018-07-21T20:01:38.847Z,15.00
2018-07-21T20:04:06.310Z,15.30
2018-07-21T20:06:33.647Z,15.20
2018-07-21T20:09:01.061Z,14.93
2018-07-21T20:11:28.386Z,16.10
2018-07-21T20:13:55.774Z,16.20
2018-07-21T20:16:23.169Z,14.33
2018-07-21T20:18:50.591Z,15.20
2018-07-21T20:21:17.985Z,15.43
2018-07-21T20:23:45.355Z,16.07
2018-07-21T20:26:12.702Z,16.30
2018-07-21T20:28:40.082Z,16.93
2018-07-21T20:31:07.429Z,16.73
2018-07-21T20:33:34.796Z,16.03
2018-07-21T20:36:02.192Z,15.97
2018-07-21T20:38:29.511Z,16.07
2018-07-21T20:40:56.847Z,15.37
2018-07-21T20:43:24.199Z,15.23
2018-07-21T20:45:51.528Z,13.23
2018-07-21T20:48:18.908Z,14.80
2018-07-21T20:50:46.190Z,13.17
2018-07-21T20:53:13.572Z,14.60
2018-07-21T20:55:40.971Z,14.63
2018-07-21T20:58:08.339Z,14.90
2018-07-21T21:00:35.696Z,15.60
2018-07-21T21:03:03.031Z,14.20
2018-07-21T21:05:30.395Z,13.50
2018-07-21T21:07:57.749Z,14.33
2018-07-21T21:10:25.098Z,13.57
2018-07-21T21:12:52.851Z,13.10
2018-07-21T21:15:20.184Z,12.23
2018-07-21T21:17:47.545Z,11.70
2018-07-21T21:20:14.874Z,11.37
2018-07-21T21:22:42.250Z,12.53
2018-07-21T21:25:09.540Z,11.43
2018-07-21T21:27:36.961Z,10.80
2018-07-21T21:30:04.336Z,11.30
2018-07-21T21:32:31.718Z,11.17
2018-07-21T21:34:59.111Z,11.17
2018-07-21T21:37:26.607Z,11.53
2018-07-21T21:39:53.991Z,10.80
2018-07-21T21:42:21.500Z,10.70
2018-07-21T21:44:48.761Z,11.27
2018-07-21T21:47:16.372Z,10.20
2018-07-21T21:49:43.706Z,11.47
2018-07-21T21:52:11.097Z,11.43
2018-07-21T21:54:38.512Z,11.30
2018-07-21T21:57:05.867Z,11.10
2018-07-21T21:59:33.236Z,11.47
2018-07-21T22:02:00.614Z,11.47
2018-07-21T22:04:27.949Z,12.00
2018-07-21T22:06:55.431Z,11.53
2018-07-21T22:09:22.818Z,11.80
2018-07-21T22:11:50.185Z,11.33
2018-07-21T22:14:17.587Z,11.50
2018-07-21T22:16:45.150Z,12.93
2018-07-21T22:19:12.516Z,11.13
2018-07-21T22:21:39.860Z,10.80
2018-07-21T22:24:07.206Z,10.93
2018-07-21T22:26:34.542Z,9.97
2018-07-21T22:29:01.912Z,11.17
2018-07-21T22:31:29.327Z,9.40
2018-07-21T22:33:56.926Z,9.63
2018-07-21T22:36:24.379Z,9.80
2018-07-21T22:38:51.731Z,9.23
2018-07-21T22:41:19.047Z,9.30
2018-07-21T22:43:46.257Z,9.17
2018-07-21T22:46:13.610Z,9.40
2018-07-21T22:48:40.944Z,8.97
2018-07-21T22:51:08.265Z,9.40
2018-07-21T22:53:35.627Z,8.83
2018-07-21T22:56:02.971Z,9.17
2018-07-21T22:58:30.302Z,9.67
2018-07-21T23:00:57.634Z,8.93
2018-07-21T23:03:24.967Z,8.37
2018-07-21T23:05:52.328Z,8.73
2018-07-21T23:08:19.637Z,8.60
2018-07-21T23:10:47.078Z,8.90
2018-07-21T23:13:14.389Z,8.50
2018-07-21T23:15:41.751Z,9.80
2018-07-21T23:18:09.087Z,8.80
2018-07-21T23:20:36.406Z,9.20
2018-07-21T23:23:03.733Z,8.63
2018-07-21T23:25:31.032Z,8.80
2018-07-21T23:27:58.372Z,9.07
2018-07-21T23:30:25.725Z,8.40
2018-07-21T23:32:53.091Z,8.73
2018-07-21T23:35:20.419Z,8.50
2018-07-21T23:37:47.739Z,8.97
2018-07-21T23:40:15.212Z,9.33
2018-07-21T23:42:42.563Z,9.70
2018-07-21T23:45:09.892Z,9.80
2018-07-21T23:47:37.219Z,10.13
2018-07-21T23:50:04.566Z,9.30
2018-07-21T23:52:31.884Z,9.40
2018-07-21T23:54:59.233Z,9.73
2018-07-21T23:57:26.555Z,9.13
2018-07-21T23:59:53.894Z,10.60
